Time;durP1;ratioP1;P1;durP2;ratioP2;P2;SDS_P1;SDS_P2;PMS_P1;PMS_P2;Temp;Humidity;BMP_temperature;BMP_pressure;BME280_temperature;BME280_humidity;BME280_pressure;Samples;Min_cycle;Max_cycle;Signal;HPM_P1;HPM_P2
2022/10/10 00:01:38;;;;;;;10.60;5.22;;;;;;;15.38;65.09;101503.69;4994415;28;20057;-75
2022/10/10 00:04:04;;;;;;;7.40;6.03;;;;;;;15.25;64.20;101479.03;4980212;28;20037;-74
2022/10/10 00:06:30;;;;;;;8.95;6.63;;;;;;;14.98;63.76;101445.59;4982929;28;20096;-75
2022/10/10 00:08:56;;;;;;;10.65;6.47;;;;;;;15.19;63.49;101508.13;4999692;28;20482;-75
2022/10/10 00:11:23;;;;;;;7.03;5.38;;;;;;;14.56;63.40;101387.53;5000813;28;20073;-75
2022/10/10 00:13:50;;;;;;;8.77;4.82;;;;;;;15.16;63.00;101508.13;4992526;28;20042;-75
2022/10/10 00:16:16;;;;;;;8.80;5.00;;;;;;;15.22;62.34;101512.53;4996397;28;20046;-74
2022/10/10 00:18:42;;;;;;;9.80;4.80;;;;;;;14.70;61.95;101419.22;4998895;28;20046;-74
2022/10/10 00:21:08;;;;;;;9.00;4.53;;;;;;;15.19;61.71;101516.06;4987584;28;20378;-74
2022/10/10 00:23:34;;;;;;;10.60;6.30;;;;;;;15.20;60.64;101523.13;4984891;28;20069;-74
2022/10/10 00:26:00;;;;;;;13.55;5.32;;;;;;;15.12;60.47;101499.31;4991471;28;20140;-73
2022/10/10 00:28:26;;;;;;;7.93;4.30;;;;;;;15.23;60.80;101516.94;4971888;28;20098;-76
2022/10/10 00:30:51;;;;;;;10.60;4.80;;;;;;;15.20;60.58;101504.63;4989366;28;20102;-75
2022/10/10 00:33:17;;;;;;;6.47;4.03;;;;;;;14.47;60.17;101398.06;4989575;28;20057;-74
2022/10/10 00:35:43;;;;;;;6.78;3.92;;;;;;;14.74;59.78;101443.84;5011713;28;20048;-75
2022/10/10 00:38:09;;;;;;;8.00;3.88;;;;;;;15.12;60.38;101520.47;5008236;28;20053;-76
2022/10/10 00:40:35;;;;;;;7.80;3.25;;;;;;;15.11;60.17;101513.44;4998893;28;20034;-74
2022/10/10 00:43:01;;;;;;;5.63;3.42;;;;;;;14.96;61.32;101511.69;5008563;28;20048;-74
2022/10/10 00:45:37;;;;;;;7.72;4.20;;;;;;;15.13;59.94;101526.66;5005956;28;20030;-73
2022/10/10 00:48:21;;;;;;;7.03;3.38;;;;;;;14.50;60.08;101431.50;4991473;28;20036;-74
2022/10/10 00:51:04;;;;;;;4.72;2.97;;;;;;;15.10;60.12;101532.84;5005541;28;20573;-73
2022/10/10 00:53:49;;;;;;;8.05;3.47;;;;;;;14.50;59.95;101455.28;5008475;28;20103;-75
2022/10/10 00:56:18;;;;;;;13.90;3.67;;;;;;;14.98;60.26;101541.66;5005209;28;20164;-75
2022/10/10 00:58:47;;;;;;;17.85;3.05;;;;;;;14.98;60.05;101544.28;4996875;28;20058;-73
2022/10/10 01:01:13;;;;;;;11.80;4.30;;;;;;;14.97;60.16;101539.00;5006645;28;20163;-74
2022/10/10 01:03:38;;;;;;;7.03;3.60;;;;;;;14.24;60.21;101416.53;4990530;28;20567;-74
2022/10/10 01:06:05;;;;;;;6.78;3.67;;;;;;;14.26;61.03;101427.09;5001777;28;20161;-75
2022/10/10 01:08:30;;;;;;;10.00;4.03;;;;;;;15.02;60.13;101542.50;5007679;28;20038;-74
2022/10/10 01:11:08;;;;;;;5.97;2.83;;;;;;;14.39;60.79;101451.75;4997473;28;20793;-75
2022/10/10 01:13:51;;;;;;;8.93;3.28;;;;;;;15.05;60.58;101538.97;5007400;28;20049;-75
2022/10/10 01:16:38;;;;;;;6.80;3.67;;;;;;;14.45;60.91;101434.16;5006928;28;20049;-74
2022/10/10 01:19:15;;;;;;;8.82;4.20;;;;;;;14.94;61.32;101531.06;4997721;28;20516;-73
2022/10/10 01:21:59;;;;;;;6.72;4.38;;;;;;;14.72;61.51;101538.97;5021039;28;20107;-74
2022/10/10 01:24:57;;;;;;;11.07;3.55;;;;;;;14.86;61.59;101530.19;5006900;28;20034;-75
2022/10/10 01:27:40;;;;;;;8.07;3.67;;;;;;;14.16;61.61;101418.25;4998510;28;20497;-74
2022/10/10 01:30:19;;;;;;;5.72;3.40;;;;;;;14.17;61.90;101424.44;4997149;28;20046;-74
2022/10/10 01:33:10;;;;;;;7.45;4.07;;;;;;;14.85;62.39;101544.28;5000026;28;20054;-74
2022/10/10 01:36:10;;;;;;;10.20;4.45;;;;;;;14.80;62.35;101546.91;4992058;28;20050;-74
2022/10/10 01:38:36;;;;;;;6.47;4.18;;;;;;;14.23;62.04;101459.63;4988824;28;20146;-73
2022/10/10 01:41:15;;;;;;;5.70;2.90;;;;;;;14.76;63.02;101555.72;4986901;28;20613;-73
2022/10/10 01:43:41;;;;;;;10.07;4.03;;;;;;;14.00;62.78;101421.75;4988106;28;20181;-75
2022/10/10 01:46:16;;;;;;;11.27;3.70;;;;;;;14.81;63.17;101558.38;4952249;28;20098;-74
2022/10/10 01:48:44;;;;;;;8.80;5.28;;;;;;;14.65;63.71;101529.28;4986877;28;20049;-74
2022/10/10 01:51:12;;;;;;;9.52;4.13;;;;;;;14.59;63.42;101557.47;4989773;28;20035;-73
2022/10/10 01:53:58;;;;;;;9.52;3.90;;;;;;;14.63;63.87;101564.50;4979740;28;20045;-75
2022/10/10 01:56:46;;;;;;;6.32;3.67;;;;;;;14.64;63.76;101561.88;4972753;28;20799;-74
2022/10/10 01:59:42;;;;;;;11.18;5.78;;;;;;;14.70;64.44;101560.97;4971436;28;20650;-74
2022/10/10 02:02:19;;;;;;;7.20;4.43;;;;;;;14.70;63.74;101575.09;4989359;28;20049;-73
2022/10/10 02:04:57;;;;;;;6.72;4.03;;;;;;;14.63;64.78;101573.28;4988415;28;20159;-75
2022/10/10 02:07:45;;;;;;;4.97;3.50;;;;;;;14.63;64.67;101582.97;4992839;28;20521;-73
2022/10/10 02:10:17;;;;;;;10.63;4.28;;;;;;;13.92;64.60;101445.50;4983680;28;20121;-73
2022/10/10 02:12:44;;;;;;;20.35;4.40;;;;;;;14.47;64.87;101555.63;4986643;28;20046;-77
2022/10/10 02:15:14;;;;;;;10.57;3.90;;;;;;;14.54;65.36;101549.53;4993741;28;20061;-75
2022/10/10 02:17:42;;;;;;;12.10;4.22;;;;;;;13.97;65.54;101451.66;4985116;28;20042;-75
2022/10/10 02:20:12;;;;;;;6.85;3.78;;;;;;;13.93;65.23;101461.34;4990880;28;20126;-77
2022/10/10 02:22:41;;;;;;;17.88;3.63;;;;;;;14.44;65.00;101548.56;4987687;28;20423;-75
2022/10/10 02:25:07;;;;;;;10.73;4.85;;;;;;;13.93;65.57;101489.50;4968284;28;20461;-74
2022/10/10 02:28:34;;;;;;;9.77;4.30;;;;;;;14.52;65.61;101582.94;4983377;28;20493;-75
2022/10/10 02:31:07;;;;;;;6.43;3.88;;;;;;;13.87;66.16;101471.00;4910475;29;20046;-74
2022/10/10 02:33:46;;;;;;;8.00;4.07;;;;;;;14.47;65.65;101590.84;4909231;29;20052;-73
2022/10/10 02:36:14;;;;;;;6.65;3.65;;;;;;;14.42;66.13;101599.63;4952658;28;20113;-73
2022/10/10 02:38:42;;;;;;;17.20;4.50;;;;;;;14.30;66.03;101579.34;4989611;28;20106;-74
2022/10/10 02:41:13;;;;;;;7.38;3.53;;;;;;;14.41;66.06;101597.88;4968022;28;20125;-74
2022/10/10 02:43:39;;;;;;;6.30;3.42;;;;;;;14.39;66.07;101597.84;4994678;28;20074;-74
2022/10/10 02:46:10;;;;;;;9.35;4.00;;;;;;;14.20;65.99;101569.63;4980762;28;20531;-75
2022/10/10 02:48:36;;;;;;;9.57;4.03;;;;;;;14.26;66.22;101567.03;4986298;28;20041;-74
2022/10/10 02:51:02;;;;;;;11.60;5.82;;;;;;;14.36;65.94;101584.66;4997744;28;20026;-75
2022/10/10 02:53:27;;;;;;;7.20;4.07;;;;;;;13.71;66.00;101484.09;4986626;28;20049;-75
2022/10/10 02:55:53;;;;;;;5.50;3.10;;;;;;;13.38;65.93;101476.91;4986658;28;20039;-74
2022/10/10 02:58:18;;;;;;;10.73;4.13;;;;;;;13.92;66.62;101588.84;4991054;28;20050;-75
2022/10/10 03:00:45;;;;;;;7.57;4.55;;;;;;;14.09;66.55;101607.44;4992534;28;20039;-75
2022/10/10 03:03:10;;;;;;;8.68;3.63;;;;;;;14.14;65.76;101618.91;4988130;28;20073;-75
2022/10/10 03:05:36;;;;;;;6.15;4.03;;;;;;;14.08;66.00;101605.66;4996215;28;20054;-75
2022/10/10 03:08:01;;;;;;;9.10;3.95;;;;;;;13.44;65.69;101499.81;4991502;28;20038;-75
2022/10/10 03:10:27;;;;;;;7.03;4.47;;;;;;;13.67;65.36;101528.91;4982930;28;20050;-75
2022/10/10 03:12:52;;;;;;;9.98;3.65;;;;;;;13.93;65.41;101597.69;4994798;28;20125;-76
2022/10/10 03:15:17;;;;;;;18.73;4.63;;;;;;;13.97;66.18;101610.00;4998173;28;20038;-75
2022/10/10 03:17:43;;;;;;;8.27;3.30;;;;;;;13.97;64.75;101623.19;4993185;28;20481;-75
2022/10/10 03:20:10;;;;;;;12.30;4.15;;;;;;;13.76;64.37;101592.28;4983061;28;20093;-74
2022/10/10 03:22:35;;;;;;;5.50;3.10;;;;;;;14.03;64.43;101625.00;5001627;28;20513;-74
2022/10/10 03:25:01;;;;;;;10.35;3.38;;;;;;;14.06;64.38;101636.44;4991991;28;20047;-75
2022/10/10 03:27:27;;;;;;;6.22;3.25;;;;;;;13.25;63.73;101512.84;4971076;28;20041;-75
2022/10/10 03:29:53;;;;;;;9.00;4.35;;;;;;;13.91;63.33;101629.31;4997001;28;20022;-76
2022/10/10 03:32:31;;;;;;;11.25;3.85;;;;;;;13.96;63.52;101644.31;4999541;28;20053;-74
2022/10/10 03:34:56;;;;;;;8.45;3.97;;;;;;;13.86;63.68;101638.06;4982825;28;20553;-75
2022/10/10 03:37:22;;;;;;;9.10;4.07;;;;;;;13.69;63.12;101627.41;4984708;28;20042;-75
2022/10/10 03:39:47;;;;;;;11.52;4.43;;;;;;;13.20;63.82;101518.94;4988952;28;20489;-75
2022/10/10 03:42:13;;;;;;;14.02;4.28;;;;;;;13.77;63.28;101644.19;4989145;28;20477;-74
2022/10/10 03:44:38;;;;;;;6.13;3.17;;;;;;;13.83;62.73;101646.84;4991040;28;20030;-76
2022/10/10 03:47:04;;;;;;;11.07;3.03;;;;;;;13.62;62.67;101621.22;4992118;28;20125;-76
2022/10/10 03:49:31;;;;;;;5.72;3.63;;;;;;;13.24;62.67;101540.06;4990032;28;20463;-76
2022/10/10 03:51:57;;;;;;;7.90;3.42;;;;;;;13.85;62.89;101636.31;4983824;28;20098;-76
2022/10/10 03:54:22;;;;;;;15.23;3.78;;;;;;;13.43;62.72;101574.50;4990086;28;20043;-74
2022/10/10 03:56:48;;;;;;;6.32;3.60;;;;;;;13.72;62.44;101644.16;4989202;28;20386;-77
2022/10/10 03:59:13;;;;;;;5.10;3.38;;;;;;;13.49;62.01;101620.25;4990657;28;20113;-74
2022/10/10 04:01:39;;;;;;;7.90;3.83;;;;;;;13.14;62.57;101553.19;4989674;28;20052;-76
2022/10/10 04:04:04;;;;;;;4.05;2.80;;;;;;;13.46;62.23;101622.88;4988205;28;20046;-74
2022/10/10 04:06:30;;;;;;;10.23;3.70;;;;;;;13.48;61.77;101641.31;4987333;28;20037;-75
2022/10/10 04:08:55;;;;;;;8.20;3.60;;;;;;;13.55;61.73;101650.16;4975159;28;20518;-75
2022/10/10 04:11:21;;;;;;;7.95;4.18;;;;;;;12.85;61.54;101548.50;4981067;28;20042;-74
2022/10/10 04:13:46;;;;;;;14.18;3.70;;;;;;;12.79;61.71;101543.22;4989509;28;20053;-75
2022/10/10 04:16:12;;;;;;;6.28;3.15;;;;;;;12.77;61.46;101559.00;4988114;28;20058;-75
2022/10/10 04:18:37;;;;;;;10.10;3.75;;;;;;;13.32;61.81;101655.25;4969188;28;20042;-75
2022/10/10 04:21:04;;;;;;;7.88;3.22;;;;;;;13.38;62.06;101658.81;4985260;28;20027;-74
2022/10/10 04:23:31;;;;;;;7.28;3.67;;;;;;;13.33;62.33;101670.22;4989610;28;20043;-75
2022/10/10 04:25:56;;;;;;;7.45;3.13;;;;;;;13.38;62.03;101658.81;4988223;28;20046;-75
2022/10/10 04:28:22;;;;;;;7.90;3.47;;;;;;;12.58;61.33;101551.78;4982620;28;20049;-74
2022/10/10 04:30:48;;;;;;;7.28;3.35;;;;;;;13.33;61.42;101679.00;4988008;28;20541;-74
2022/10/10 04:33:20;;;;;;;11.18;3.75;;;;;;;13.25;61.49;101675.34;5000578;28;20056;-74
2022/10/10 04:35:48;;;;;;;6.03;3.07;;;;;;;13.26;62.41;101687.69;5007816;28;20088;-75
2022/10/10 04:38:14;;;;;;;6.50;3.35;;;;;;;13.10;61.49;101682.25;5008756;28;20053;-74
2022/10/10 04:40:40;;;;;;;7.97;3.13;;;;;;;13.26;61.11;101687.69;4998011;28;20034;-74
2022/10/10 04:43:05;;;;;;;10.18;3.28;;;;;;;12.87;61.42;101610.00;4998259;28;20124;-74
2022/10/10 04:45:31;;;;;;;8.05;3.33;;;;;;;12.92;61.55;101637.28;5005940;28;20513;-75
2022/10/10 04:47:56;;;;;;;13.93;3.53;;;;;;;13.23;62.06;101683.28;5005811;28;20370;-73
2022/10/10 04:50:22;;;;;;;11.13;4.05;;;;;;;12.51;61.30;101558.75;4999975;28;20094;-76
2022/10/10 04:52:48;;;;;;;23.40;5.20;;;;;;;13.20;61.97;101696.41;5007419;28;20034;-75
2022/10/10 04:55:20;;;;;;;9.05;3.88;;;;;;;13.02;61.91;101685.69;5000158;28;20041;-77
2022/10/10 04:57:46;;;;;;;12.80;3.60;;;;;;;13.11;61.97;101698.97;5009390;28;20042;-74
2022/10/10 05:00:18;;;;;;;4.82;3.05;;;;;;;13.21;61.81;101699.94;5002249;28;20386;-72
2022/10/10 05:02:44;;;;;;;5.10;2.83;;;;;;;12.57;61.64;101579.88;5012102;28;20038;-75
2022/10/10 05:05:09;;;;;;;7.97;4.32;;;;;;;12.49;62.21;101578.03;4997960;28;20053;-75
2022/10/10 05:07:35;;;;;;;8.23;3.30;;;;;;;13.04;61.98;101716.47;5015143;28;20045;-75
2022/10/10 05:10:01;;;;;;;8.77;2.83;;;;;;;13.08;62.33;101707.69;4999625;28;20038;-74
2022/10/10 05:12:26;;;;;;;7.13;3.65;;;;;;;12.19;61.96;101580.28;5001226;28;20034;-74
2022/10/10 05:14:52;;;;;;;11.50;4.15;;;;;;;12.18;62.11;101580.31;5007700;28;20462;-75
2022/10/10 05:17:18;;;;;;;5.55;2.40;;;;;;;12.28;62.00;101592.69;5007319;28;20367;-74
2022/10/10 05:19:43;;;;;;;10.10;4.25;;;;;;;13.09;62.87;101717.41;5002716;28;20111;-75
2022/10/10 05:22:09;;;;;;;7.30;3.40;;;;;;;13.05;62.13;101731.41;5000566;28;20817;-75
2022/10/10 05:24:34;;;;;;;9.98;3.38;;;;;;;13.19;62.72;101718.38;5007318;28;20470;-75
2022/10/10 05:26:59;;;;;;;10.13;3.60;;;;;;;12.74;61.42;101643.25;5007630;28;20068;-74
2022/10/10 05:29:25;;;;;;;7.05;3.58;;;;;;;12.66;61.54;101608.03;5006183;28;20046;-74
2022/10/10 05:31:50;;;;;;;9.30;4.05;;;;;;;12.62;61.22;101630.84;4994116;28;20122;-75
2022/10/10 05:34:16;;;;;;;13.25;3.90;;;;;;;12.43;61.88;101613.03;5005811;28;20050;-75
2022/10/10 05:36:41;;;;;;;8.45;2.90;;;;;;;12.67;61.64;101641.41;4983210;28;20046;-76
2022/10/10 05:39:08;;;;;;;9.82;4.38;;;;;;;13.08;62.16;101741.97;4998546;28;20025;-76
2022/10/10 05:41:34;;;;;;;7.78;4.28;;;;;;;13.26;62.23;101728.09;4999755;28;20045;-77
2022/10/10 05:44:00;;;;;;;10.80;3.55;;;;;;;12.51;61.56;101624.56;5023847;28;20537;-73
2022/10/10 05:46:26;;;;;;;8.80;3.65;;;;;;;13.31;62.05;101751.91;4992338;28;20053;-75
2022/10/10 05:48:52;;;;;;;13.75;3.75;;;;;;;13.34;61.55;101758.97;4995634;28;20061;-75
2022/10/10 05:51:18;;;;;;;14.82;4.03;;;;;;;13.04;61.87;101692.75;4997267;28;20034;-75
2022/10/10 05:53:44;;;;;;;10.52;3.90;;;;;;;13.28;61.75;101722.88;4992492;28;20505;-76
2022/10/10 05:56:10;;;;;;;7.55;3.65;;;;;;;13.28;61.90;101758.03;5004864;28;20046;-77
2022/10/10 05:58:37;;;;;;;34.88;4.05;;;;;;;13.00;61.84;101666.34;5005847;28;20049;-75
2022/10/10 06:01:05;;;;;;;7.13;3.78;;;;;;;13.58;61.49;101768.88;4993399;28;20588;-76
2022/10/10 06:03:31;;;;;;;13.80;4.38;;;;;;;12.50;60.88;101553.44;4988177;28;21045;-76
2022/10/10 06:05:57;;;;;;;10.98;3.88;;;;;;;13.27;61.07;101669.28;5000230;28;20062;-75
2022/10/10 06:08:24;;;;;;;10.60;4.18;;;;;;;13.02;61.74;101662.00;5014024;28;20736;-76
2022/10/10 06:10:50;;;;;;;12.40;3.38;;;;;;;13.43;61.16;101773.13;5003770;28;20041;-74
2022/10/10 06:13:17;;;;;;;11.25;4.35;;;;;;;13.52;61.87;101746.84;5023100;28;20038;-76
2022/10/10 06:15:42;;;;;;;9.15;3.83;;;;;;;12.96;61.13;101649.63;4975126;28;20069;-76
2022/10/10 06:18:09;;;;;;;7.70;3.85;;;;;;;13.54;61.57;101783.78;4973220;28;20039;-74
2022/10/10 06:20:36;;;;;;;14.40;3.65;;;;;;;13.17;61.01;101754.38;5007212;28;20046;-76
2022/10/10 06:23:02;;;;;;;10.23;3.28;;;;;;;13.54;61.70;101782.91;5007809;28;20034;-75
2022/10/10 06:25:28;;;;;;;8.48;3.28;;;;;;;13.73;61.88;101777.81;5005989;28;20055;-75
2022/10/10 06:27:53;;;;;;;18.80;5.90;;;;;;;13.75;61.43;101787.50;5007024;28;20042;-76
2022/10/10 06:30:19;;;;;;;7.78;3.13;;;;;;;13.92;61.77;101791.16;5022895;28;20097;-75
2022/10/10 06:32:44;;;;;;;7.75;2.83;;;;;;;13.72;61.30;101791.88;5005834;28;20060;-74
2022/10/10 06:35:10;;;;;;;8.30;3.30;;;;;;;13.05;60.54;101688.34;5005605;28;20370;-75
2022/10/10 06:37:36;;;;;;;7.18;3.65;;;;;;;13.72;61.13;101793.66;5005848;28;20054;-75
2022/10/10 06:40:02;;;;;;;19.73;3.85;;;;;;;13.06;61.32;101684.84;5001795;28;20501;-76
2022/10/10 06:42:27;;;;;;;8.93;3.38;;;;;;;13.69;60.34;101820.84;5002730;28;20030;-74
2022/10/10 06:44:53;;;;;;;9.35;3.45;;;;;;;13.47;60.95;101750.31;5003538;28;20407;-76
2022/10/10 06:47:18;;;;;;;5.43;2.83;;;;;;;13.22;59.97;101678.84;4996593;28;20038;-75
2022/10/10 06:49:44;;;;;;;10.93;3.63;;;;;;;14.26;65.47;101783.53;5006836;28;20045;-75
2022/10/10 06:52:09;;;;;;;9.93;3.55;;;;;;;15.02;62.15;101833.28;5009988;28;20057;-76
2022/10/10 06:54:35;;;;;;;7.05;4.07;;;;;;;14.94;64.67;101718.72;5009527;28;20038;-74
2022/10/10 06:57:00;;;;;;;7.82;3.22;;;;;;;15.25;67.44;101780.50;5005840;28;20037;-74
2022/10/10 06:59:26;;;;;;;12.45;3.70;;;;;;;15.41;59.73;101808.75;5014275;28;20404;-75
2022/10/10 07:01:51;;;;;;;9.82;3.53;;;;;;;16.35;60.65;101818.56;5005863;28;20477;-75
2022/10/10 07:04:17;;;;;;;15.57;3.17;;;;;;;15.69;57.34;101822.03;5007653;28;20046;-76
2022/10/10 07:06:42;;;;;;;6.35;3.10;;;;;;;15.20;57.11;101822.78;5008735;28;20084;-76
2022/10/10 07:09:08;;;;;;;14.05;3.67;;;;;;;15.78;61.46;101815.88;5007332;28;20022;-74
2022/10/10 07:11:33;;;;;;;4.68;2.40;;;;;;;16.33;62.60;101812.38;5007288;28;20304;-75
2022/10/10 07:13:58;;;;;;;4.57;2.55;;;;;;;16.06;57.27;101823.84;5009906;28;20046;-76
2022/10/10 07:16:24;;;;;;;8.43;2.70;;;;;;;16.64;62.30;101816.69;5007506;28;20054;-75
2022/10/10 07:18:50;;;;;;;9.07;1.80;;;;;;;15.67;60.71;101693.25;5001636;28;20096;-75
2022/10/10 07:21:16;;;;;;;5.72;2.47;;;;;;;16.40;58.35;101817.66;5016857;28;20029;-75
2022/10/10 07:23:41;;;;;;;9.63;2.45;;;;;;;16.62;57.07;101809.66;5010525;28;20056;-76
2022/10/10 07:26:11;;;;;;;8.45;2.05;;;;;;;16.51;58.33;101783.19;5008126;28;20085;-76
2022/10/10 07:28:37;;;;;;;6.00;2.20;;;;;;;16.88;58.50;101768.09;4991561;28;20121;-76
2022/10/10 07:31:07;;;;;;;6.82;2.75;;;;;;;16.35;52.90;101815.91;5005096;28;20069;-74
2022/10/10 07:33:38;;;;;;;9.60;3.03;;;;;;;15.41;53.42;101672.97;4997824;28;20037;-77
2022/10/10 07:36:05;;;;;;;10.57;2.38;;;;;;;15.44;52.59;101699.41;5005147;28;20430;-72
2022/10/10 07:38:30;;;;;;;8.73;2.63;;;;;;;16.69;58.53;101798.13;5009064;28;20069;-77
2022/10/10 07:40:56;;;;;;;12.35;2.53;;;;;;;16.71;53.89;101806.09;5006476;28;20050;-75
2022/10/10 07:43:21;;;;;;;10.13;2.38;;;;;;;15.88;55.18;101747.97;5006301;28;20046;-74
2022/10/10 07:45:47;;;;;;;6.80;2.50;;;;;;;16.16;55.57;101810.63;4993705;28;20101;-74
2022/10/10 07:48:13;;;;;;;3.05;1.55;;;;;;;16.97;56.14;101825.47;5000781;28;20057;-76
2022/10/10 07:50:44;;;;;;;3.45;1.60;;;;;;;16.78;56.10;101813.16;5008053;28;20029;-75
2022/10/10 07:53:11;;;;;;;9.00;2.95;;;;;;;16.70;52.49;101796.41;5007758;28;20133;-74
2022/10/10 07:55:43;;;;;;;4.00;1.92;;;;;;;16.44;56.16;101691.38;4994649;28;20088;-75
2022/10/10 07:58:10;;;;;;;14.13;2.20;;;;;;;16.55;52.67;101786.69;4976730;28;20442;-75
2022/10/10 08:00:39;;;;;;;5.50;1.95;;;;;;;15.20;53.99;101718.78;4989494;28;20042;-76
2022/10/10 08:03:05;;;;;;;8.00;2.60;;;;;;;15.59;53.89;101818.50;4998482;28;20041;-74
2022/10/10 08:05:31;;;;;;;6.13;2.42;;;;;;;15.55;54.25;101821.13;5014781;28;20049;-74
2022/10/10 08:07:56;;;;;;;11.73;1.88;;;;;;;15.46;54.20;101829.03;5006135;28;20053;-74
2022/10/10 08:10:22;;;;;;;14.77;2.88;;;;;;;15.61;54.17;101824.66;5002963;28;20038;-75
2022/10/10 08:12:47;;;;;;;11.65;2.17;;;;;;;14.94;53.66;101700.22;5020966;28;20107;-75
2022/10/10 08:15:13;;;;;;;5.35;2.03;;;;;;;14.71;54.13;101706.31;5002539;28;20173;-75
2022/10/10 08:17:38;;;;;;;4.13;1.80;;;;;;;15.04;54.37;101812.16;5008290;28;20084;-75
2022/10/10 08:20:05;;;;;;;5.85;2.30;;;;;;;15.29;54.70;101816.66;5005189;28;20072;-74
2022/10/10 08:22:31;;;;;;;7.40;2.53;;;;;;;14.09;53.14;101631.19;5019243;28;20519;-75
2022/10/10 08:24:56;;;;;;;10.52;3.50;;;;;;;14.59;53.46;101756.47;5007927;28;20111;-75
2022/10/10 08:27:22;;;;;;;4.53;2.13;;;;;;;15.43;52.94;101819.34;5013330;28;20474;-75
2022/10/10 08:29:47;;;;;;;4.93;1.88;;;;;;;15.03;53.41;101717.84;5006583;28;20068;-74
2022/10/10 08:32:13;;;;;;;14.77;3.45;;;;;;;15.03;53.18;101694.97;5006695;28;20514;-73
2022/10/10 08:34:38;;;;;;;17.88;2.00;;;;;;;15.66;53.29;101803.47;4990168;28;20448;-77
2022/10/10 08:37:04;;;;;;;6.90;3.05;;;;;;;15.10;52.29;101739.03;5005095;28;20046;-75
2022/10/10 08:39:30;;;;;;;3.88;1.90;;;;;;;15.84;53.19;101818.53;4991940;28;20434;-74
2022/10/10 08:42:01;;;;;;;9.32;2.28;;;;;;;15.36;52.10;101715.28;4999496;28;20121;-75
2022/10/10 08:44:29;;;;;;;11.80;3.03;;;;;;;16.03;52.41;101822.09;5013071;28;20045;-75
2022/10/10 08:47:08;;;;;;;4.38;1.80;;;;;;;15.76;52.02;101775.31;5008925;28;20045;-74
2022/10/10 08:49:40;;;;;;;10.45;2.40;;;;;;;16.08;51.99;101822.09;4984704;28;20562;-74
2022/10/10 08:52:09;;;;;;;7.50;2.80;;;;;;;15.95;51.41;101814.16;4999313;28;20211;-75
2022/10/10 08:54:38;;;;;;;3.70;2.05;;;;;;;15.19;52.33;101712.63;5011141;28;20041;-78
2022/10/10 08:57:05;;;;;;;4.13;2.25;;;;;;;16.02;52.76;101817.69;4997321;28;20029;-74
2022/10/10 08:59:35;;;;;;;11.05;2.80;;;;;;;15.86;51.42;101822.09;5001957;28;20220;-74
2022/10/10 09:02:28;;;;;;;43.22;22.83;;;;;;;15.93;54.67;101807.09;5002730;28;20047;-74
2022/10/10 09:04:55;;;;;;;108.57;61.83;;;;;;;16.00;51.55;101816.81;4979511;28;20456;-73
2022/10/10 09:07:26;;;;;;;132.35;74.75;;;;;;;14.76;52.31;101690.47;5010035;28;20486;-75
2022/10/10 09:10:21;;;;;;;252.98;159.25;;;;;;;16.39;61.26;101801.78;5002768;28;20238;-74
2022/10/10 09:13:17;;;;;;;272.80;139.10;;;;;;;16.17;54.25;101811.50;4968810;28;20049;-74
2022/10/10 09:15:58;;;;;;;246.65;135.77;;;;;;;15.90;57.13;101740.91;5003408;28;20092;-73
2022/10/10 09:19:05;;;;;;;146.25;80.25;;;;;;;16.59;54.84;101807.88;5001349;28;20046;-76
2022/10/10 09:21:33;;;;;;;77.57;41.72;;;;;;;16.49;51.31;101822.06;5006948;28;20419;-74
2022/10/10 09:24:08;;;;;;;217.70;113.05;;;;;;;16.62;51.17;101805.25;5009697;28;20030;-73
2022/10/10 09:26:40;;;;;;;268.35;151.02;;;;;;;17.14;53.87;101783.00;4995074;28;20061;-74
2022/10/10 09:29:28;;;;;;;137.18;66.88;;;;;;;16.19;50.89;101711.75;4991710;28;20681;-73
2022/10/10 09:31:57;;;;;;;269.23;162.32;;;;;;;17.15;52.43;101811.25;4988585;28;20061;-73
2022/10/10 09:34:37;;;;;;;143.43;79.40;;;;;;;16.91;53.11;101814.91;5005958;28;20053;-75
2022/10/10 09:37:11;;;;;;;112.50;56.50;;;;;;;17.03;50.10;101819.28;5012670;28;20049;-76
2022/10/10 09:39:45;;;;;;;25.17;12.32;;;;;;;16.81;53.33;101807.84;5000080;28;20053;-73
2022/10/10 09:42:13;;;;;;;59.45;29.55;;;;;;;16.20;53.67;101713.50;4987357;28;20022;-75
2022/10/10 09:44:41;;;;;;;97.15;48.92;;;;;;;16.26;56.41;101721.44;5009705;28;20038;-73
2022/10/10 09:47:13;;;;;;;47.45;23.48;;;;;;;16.91;52.07;101816.69;5006861;28;20836;-75
2022/10/10 09:49:38;;;;;;;19.95;9.07;;;;;;;16.40;49.68;101716.97;5008747;28;20049;-73
2022/10/10 09:52:33;;;;;;;90.45;42.00;;;;;;;17.07;48.93;101810.44;5006303;28;20049;-73
2022/10/10 09:55:27;;;;;;;42.30;16.45;;;;;;;16.96;53.44;101802.50;4982458;28;20058;-73
2022/10/10 09:57:56;;;;;;;69.72;36.53;;;;;;;17.04;53.80;101770.66;4990747;28;20136;-74
2022/10/10 10:00:35;;;;;;;61.92;28.55;;;;;;;17.15;51.59;101795.34;4981880;28;20140;-73
2022/10/10 10:03:16;;;;;;;49.22;23.55;;;;;;;17.36;50.64;101790.81;4994413;28;20026;-74
2022/10/10 10:06:00;;;;;;;59.40;29.30;;;;;;;17.01;52.30;101791.88;4990710;28;20184;-74
2022/10/10 10:08:29;;;;;;;15.07;6.43;;;;;;;16.46;49.69;101697.53;4997761;28;20486;-74
2022/10/10 10:10:58;;;;;;;147.73;74.75;;;;;;;17.29;51.43;101758.13;5003234;28;20095;-76
2022/10/10 10:13:35;;;;;;;12.07;4.20;;;;;;;17.13;53.32;101770.59;4997683;28;20062;-73
2022/10/10 10:16:03;;;;;;;68.30;28.23;;;;;;;16.81;52.70;101677.97;4993164;28;20068;-74
2022/10/10 10:18:36;;;;;;;6.85;4.05;;;;;;;17.32;51.75;101773.16;4995598;28;20030;-74
2022/10/10 10:21:01;;;;;;;62.90;28.10;;;;;;;18.06;52.43;101774.41;4989049;28;20033;-74
2022/10/10 10:23:36;;;;;;;11.68;5.03;;;;;;;17.54;47.30;101765.94;4988793;28;20438;-75
2022/10/10 10:26:05;;;;;;;37.67;17.92;;;;;;;17.58;49.48;101759.69;4998748;28;20070;-73
2022/10/10 10:28:38;;;;;;;25.63;12.48;;;;;;;17.12;53.06;101744.97;4995618;28;21504;-74
2022/10/10 10:31:04;;;;;;;26.55;12.10;;;;;;;17.76;52.99;101745.41;5003446;28;20033;-73
2022/10/10 10:34:21;;;;;;;9.07;3.55;;;;;;;17.62;53.49;101750.84;5001282;28;20054;-75
2022/10/10 10:37:11;;;;;;;12.10;5.30;;;;;;;18.09;49.68;101744.25;4984171;28;20054;-75
2022/10/10 10:39:52;;;;;;;12.40;3.38;;;;;;;18.26;46.99;101750.31;4985174;28;20121;-75
2022/10/10 10:42:44;;;;;;;31.83;17.27;;;;;;;18.21;49.71;101748.56;5001055;28;20121;-75
2022/10/10 10:45:41;;;;;;;37.90;17.58;;;;;;;18.29;50.11;101744.94;5001738;28;20033;-74
2022/10/10 10:48:23;;;;;;;17.98;8.57;;;;;;;18.06;47.50;101747.84;5006008;28;20050;-76
2022/10/10 10:51:25;;;;;;;27.42;13.85;;;;;;;17.68;47.33;101743.72;4994176;28;20564;-79
2022/10/10 10:54:10;;;;;;;9.90;4.65;;;;;;;18.19;49.73;101732.66;5001184;28;20042;-80
2022/10/10 10:56:59;;;;;;;30.42;14.70;;;;;;;18.26;50.03;101737.03;5005382;28;20072;-75
2022/10/10 10:59:40;;;;;;;23.73;3.75;;;;;;;18.46;47.86;101727.94;5008774;28;20042;-78
2022/10/10 11:02:05;;;;;;;16.10;8.77;;;;;;;17.76;47.03;101724.19;5013291;28;20045;-74
2022/10/10 11:05:04;;;;;;;25.60;14.40;;;;;;;18.25;47.78;101707.78;5001089;28;20058;-77
2022/10/10 11:07:48;;;;;;;6.55;3.35;;;;;;;17.40;46.52;101615.66;5005477;28;20533;-78
2022/10/10 11:10:34;;;;;;;25.83;10.80;;;;;;;18.47;47.87;101698.69;5002407;28;20037;-78
2022/10/10 11:13:23;;;;;;;14.85;3.15;;;;;;;18.32;45.87;101720.97;5011535;28;20034;-75
2022/10/10 11:15:54;;;;;;;10.98;4.68;;;;;;;18.25;47.76;101715.75;5001590;28;20060;-77
2022/10/10 11:18:26;;;;;;;7.35;3.95;;;;;;;17.19;46.66;101614.06;4993275;28;20037;-79
2022/10/10 11:21:01;;;;;;;10.50;3.20;;;;;;;17.34;46.27;101626.31;4996962;28;20030;-78
2022/10/10 11:23:53;;;;;;;8.45;5.63;;;;;;;18.20;48.15;101709.63;5000216;28;20053;-77
2022/10/10 11:26:22;;;;;;;7.83;2.87;;;;;;;18.39;47.12;101713.81;4989746;28;20050;-76
2022/10/10 11:28:56;;;;;;;5.10;2.80;;;;;;;17.85;47.20;101616.13;5001585;28;20057;-80
2022/10/10 11:32:12;;;;;;;14.57;8.25;;;;;;;18.59;48.84;101687.03;4978608;28;20593;-75
2022/10/10 11:34:49;;;;;;;12.63;4.70;;;;;;;17.64;46.97;101617.19;4995158;28;20137;-75
2022/10/10 11:37:28;;;;;;;7.45;3.85;;;;;;;17.99;50.49;101618.63;5010148;28;20066;-76